sensor_id;sensor_type;location;lat;lon;timestamp;P1;durP1;ratioP1;P2;durP2;ratioP2
34072;SDS011;20346;52.702;16.886;2022-08-03T00:01:58;9.68;;;3.60;;
34072;SDS011;20346;52.702;16.886;2022-08-03T00:04:26;9.28;;;3.50;;
34072;SDS011;20346;52.702;16.886;2022-08-03T00:06:52;6.58;;;3.80;;
34072;SDS011;20346;52.702;16.886;2022-08-03T00:09:19;10.48;;;3.67;;
34072;SDS011;20346;52.702;16.886;2022-08-03T00:11:45;7.85;;;3.55;;
34072;SDS011;20346;52.702;16.886;2022-08-03T00:14:13;6.70;;;3.20;;
34072;SDS011;20346;52.702;16.886;2022-08-03T00:16:39;9.10;;;3.67;;
34072;SDS011;20346;52.702;16.886;2022-08-03T00:19:06;10.28;;;3.95;;
34072;SDS011;20346;52.702;16.886;2022-08-03T00:21:32;9.48;;;3.55;;
34072;SDS011;20346;52.702;16.886;2022-08-03T00:23:59;12.03;;;3.95;;
34072;SDS011;20346;52.702;16.886;2022-08-03T00:26:25;10.93;;;3.83;;
34072;SDS011;20346;52.702;16.886;2022-08-03T00:28:52;8.83;;;3.85;;
34072;SDS011;20346;52.702;16.886;2022-08-03T00:31:18;17.17;;;4.85;;
34072;SDS011;20346;52.702;16.886;2022-08-03T00:33:44;9.90;;;4.37;;
34072;SDS011;20346;52.702;16.886;2022-08-03T00:36:11;12.33;;;4.53;;
34072;SDS011;20346;52.702;16.886;2022-08-03T00:38:37;10.03;;;4.83;;
34072;SDS011;20346;52.702;16.886;2022-08-03T00:41:04;10.85;;;4.00;;
34072;SDS011;20346;52.702;16.886;2022-08-03T00:43:30;7.22;;;3.83;;
34072;SDS011;20346;52.702;16.886;2022-08-03T00:45:57;12.55;;;4.60;;
34072;SDS011;20346;52.702;16.886;2022-08-03T00:48:24;13.45;;;4.40;;
34072;SDS011;20346;52.702;16.886;2022-08-03T00:50:50;14.07;;;5.20;;
34072;SDS011;20346;52.702;16.886;2022-08-03T00:53:18;11.83;;;4.45;;
34072;SDS011;20346;52.702;16.886;2022-08-03T00:55:45;7.20;;;4.33;;
34072;SDS011;20346;52.702;16.886;2022-08-03T00:58:11;8.25;;;4.08;;
34072;SDS011;20346;52.702;16.886;2022-08-03T01:00:39;14.70;;;4.42;;
34072;SDS011;20346;52.702;16.886;2022-08-03T01:06:19;12.07;;;4.17;;
34072;SDS011;20346;52.702;16.886;2022-08-03T01:08:22;12.45;;;3.87;;
34072;SDS011;20346;52.702;16.886;2022-08-03T01:30:49;7.37;;;3.72;;
34072;SDS011;20346;52.702;16.886;2022-08-03T01:33:25;10.45;;;3.58;;
34072;SDS011;20346;52.702;16.886;2022-08-03T01:35:59;8.68;;;3.75;;
34072;SDS011;20346;52.702;16.886;2022-08-03T01:38:37;9.23;;;4.20;;
34072;SDS011;20346;52.702;16.886;2022-08-03T01:41:09;8.10;;;4.05;;
34072;SDS011;20346;52.702;16.886;2022-08-03T01:43:43;5.78;;;4.15;;
34072;SDS011;20346;52.702;16.886;2022-08-03T01:46:13;14.40;;;4.45;;
34072;SDS011;20346;52.702;16.886;2022-08-03T01:48:42;10.10;;;4.72;;
34072;SDS011;20346;52.702;16.886;2022-08-03T01:51:11;5.92;;;3.90;;
34072;SDS011;20346;52.702;16.886;2022-08-03T01:53:41;4.95;;;3.60;;
34072;SDS011;20346;52.702;16.886;2022-08-03T01:56:08;7.22;;;4.20;;
34072;SDS011;20346;52.702;16.886;2022-08-03T01:58:36;5.78;;;3.77;;
34072;SDS011;20346;52.702;16.886;2022-08-03T02:01:05;6.67;;;4.60;;
34072;SDS011;20346;52.702;16.886;2022-08-03T02:03:38;5.85;;;4.62;;
34072;SDS011;20346;52.702;16.886;2022-08-03T02:06:08;7.22;;;3.75;;
34072;SDS011;20346;52.702;16.886;2022-08-03T02:08:40;7.75;;;3.67;;
34072;SDS011;20346;52.702;16.886;2022-08-03T02:11:09;4.50;;;3.12;;
34072;SDS011;20346;52.702;16.886;2022-08-03T02:13:37;4.65;;;3.45;;
34072;SDS011;20346;52.702;16.886;2022-08-03T02:16:05;4.45;;;3.22;;
34072;SDS011;20346;52.702;16.886;2022-08-03T02:18:33;5.97;;;3.27;;
34072;SDS011;20346;52.702;16.886;2022-08-03T02:21:03;7.53;;;3.90;;
34072;SDS011;20346;52.702;16.886;2022-08-03T02:23:36;9.48;;;3.25;;
34072;SDS011;20346;52.702;16.886;2022-08-03T02:26:03;5.78;;;3.33;;
34072;SDS011;20346;52.702;16.886;2022-08-03T02:28:34;6.50;;;3.60;;
34072;SDS011;20346;52.702;16.886;2022-08-03T02:31:06;4.87;;;3.15;;
34072;SDS011;20346;52.702;16.886;2022-08-03T02:33:40;6.22;;;4.03;;
34072;SDS011;20346;52.702;16.886;2022-08-03T02:36:11;7.80;;;3.67;;
34072;SDS011;20346;52.702;16.886;2022-08-03T02:38:41;9.38;;;4.60;;
34072;SDS011;20346;52.702;16.886;2022-08-03T02:41:15;4.65;;;3.50;;
34072;SDS011;20346;52.702;16.886;2022-08-03T02:43:44;8.33;;;3.42;;
34072;SDS011;20346;52.702;16.886;2022-08-03T02:46:17;5.15;;;3.67;;
34072;SDS011;20346;52.702;16.886;2022-08-03T02:48:45;7.25;;;3.55;;
34072;SDS011;20346;52.702;16.886;2022-08-03T02:51:13;7.92;;;3.65;;
34072;SDS011;20346;52.702;16.886;2022-08-03T02:53:44;5.65;;;3.77;;
34072;SDS011;20346;52.702;16.886;2022-08-03T02:56:12;6.03;;;3.45;;
34072;SDS011;20346;52.702;16.886;2022-08-03T02:58:41;4.85;;;3.08;;
34072;SDS011;20346;52.702;16.886;2022-08-03T03:01:08;7.85;;;3.72;;
34072;SDS011;20346;52.702;16.886;2022-08-03T03:03:36;5.97;;;3.33;;
34072;SDS011;20346;52.702;16.886;2022-08-03T03:06:05;9.33;;;3.40;;
34072;SDS011;20346;52.702;16.886;2022-08-03T03:08:32;4.87;;;3.25;;
34072;SDS011;20346;52.702;16.886;2022-08-03T03:11:00;6.17;;;3.92;;
34072;SDS011;20346;52.702;16.886;2022-08-03T03:13:29;5.12;;;3.08;;
34072;SDS011;20346;52.702;16.886;2022-08-03T03:15:58;5.15;;;3.50;;
34072;SDS011;20346;52.702;16.886;2022-08-03T03:18:33;6.03;;;3.25;;
34072;SDS011;20346;52.702;16.886;2022-08-03T03:20:58;4.53;;;2.95;;
34072;SDS011;20346;52.702;16.886;2022-08-03T03:23:28;6.35;;;3.20;;
34072;SDS011;20346;52.702;16.886;2022-08-03T03:25:57;5.75;;;2.92;;
34072;SDS011;20346;52.702;16.886;2022-08-03T03:28:26;4.83;;;3.33;;
34072;SDS011;20346;52.702;16.886;2022-08-03T03:30:54;6.67;;;3.02;;
34072;SDS011;20346;52.702;16.886;2022-08-03T03:33:20;8.35;;;3.35;;
34072;SDS011;20346;52.702;16.886;2022-08-03T03:35:47;5.85;;;3.20;;
34072;SDS011;20346;52.702;16.886;2022-08-03T03:38:14;3.72;;;2.85;;
34072;SDS011;20346;52.702;16.886;2022-08-03T03:40:41;4.75;;;3.05;;
34072;SDS011;20346;52.702;16.886;2022-08-03T03:43:11;3.72;;;2.90;;
34072;SDS011;20346;52.702;16.886;2022-08-03T03:45:41;4.15;;;2.83;;
34072;SDS011;20346;52.702;16.886;2022-08-03T03:48:08;4.62;;;3.17;;
34072;SDS011;20346;52.702;16.886;2022-08-03T03:53:03;3.70;;;2.90;;
34072;SDS011;20346;52.702;16.886;2022-08-03T03:55:30;5.53;;;3.47;;
34072;SDS011;20346;52.702;16.886;2022-08-03T03:57:56;7.80;;;3.40;;
34072;SDS011;20346;52.702;16.886;2022-08-03T04:00:23;4.30;;;3.37;;
34072;SDS011;20346;52.702;16.886;2022-08-03T04:02:49;4.05;;;3.02;;
34072;SDS011;20346;52.702;16.886;2022-08-03T04:05:16;5.47;;;3.05;;
34072;SDS011;20346;52.702;16.886;2022-08-03T04:08:03;4.55;;;3.00;;
34072;SDS011;20346;52.702;16.886;2022-08-03T04:13:56;4.78;;;3.05;;
34072;SDS011;20346;52.702;16.886;2022-08-03T04:16:32;4.83;;;3.42;;
34072;SDS011;20346;52.702;16.886;2022-08-03T04:19:03;3.70;;;3.27;;
34072;SDS011;20346;52.702;16.886;2022-08-03T04:21:33;5.20;;;3.20;;
34072;SDS011;20346;52.702;16.886;2022-08-03T04:24:03;6.30;;;3.12;;
34072;SDS011;20346;52.702;16.886;2022-08-03T04:26:34;3.33;;;2.80;;
34072;SDS011;20346;52.702;16.886;2022-08-03T04:29:05;4.75;;;3.35;;
34072;SDS011;20346;52.702;16.886;2022-08-03T04:31:34;5.30;;;3.50;;
34072;SDS011;20346;52.702;16.886;2022-08-03T04:34:03;4.58;;;2.80;;
34072;SDS011;20346;52.702;16.886;2022-08-03T04:39:02;4.47;;;3.00;;
34072;SDS011;20346;52.702;16.886;2022-08-03T04:41:31;5.90;;;3.60;;
34072;SDS011;20346;52.702;16.886;2022-08-03T04:43:59;12.40;;;4.50;;
34072;SDS011;20346;52.702;16.886;2022-08-03T04:46:31;7.80;;;4.45;;
34072;SDS011;20346;52.702;16.886;2022-08-03T04:48:59;4.35;;;3.80;;
34072;SDS011;20346;52.702;16.886;2022-08-03T04:51:26;6.33;;;3.87;;
34072;SDS011;20346;52.702;16.886;2022-08-03T04:56:20;4.20;;;3.55;;
34072;SDS011;20346;52.702;16.886;2022-08-03T04:58:46;5.83;;;3.80;;
34072;SDS011;20346;52.702;16.886;2022-08-03T05:01:12;3.45;;;3.15;;
34072;SDS011;20346;52.702;16.886;2022-08-03T05:03:41;8.58;;;3.30;;
34072;SDS011;20346;52.702;16.886;2022-08-03T05:06:07;5.47;;;3.90;;
34072;SDS011;20346;52.702;16.886;2022-08-03T05:11:00;4.70;;;3.22;;
34072;SDS011;20346;52.702;16.886;2022-08-03T05:13:27;11.25;;;4.05;;
34072;SDS011;20346;52.702;16.886;2022-08-03T05:15:53;7.05;;;3.35;;
34072;SDS011;20346;52.702;16.886;2022-08-03T05:18:20;4.40;;;3.65;;
34072;SDS011;20346;52.702;16.886;2022-08-03T05:20:46;3.02;;;2.83;;
34072;SDS011;20346;52.702;16.886;2022-08-03T05:23:13;6.08;;;2.98;;
34072;SDS011;20346;52.702;16.886;2022-08-03T05:25:39;3.40;;;3.10;;
34072;SDS011;20346;52.702;16.886;2022-08-03T05:28:06;6.72;;;3.22;;
34072;SDS011;20346;52.702;16.886;2022-08-03T05:30:32;3.17;;;2.85;;
34072;SDS011;20346;52.702;16.886;2022-08-03T05:32:59;2.92;;;2.58;;
34072;SDS011;20346;52.702;16.886;2022-08-03T05:35:26;3.65;;;2.67;;
34072;SDS011;20346;52.702;16.886;2022-08-03T05:40:19;3.42;;;2.98;;
34072;SDS011;20346;52.702;16.886;2022-08-03T05:42:46;2.92;;;2.67;;
34072;SDS011;20346;52.702;16.886;2022-08-03T05:45:12;4.08;;;2.52;;
34072;SDS011;20346;52.702;16.886;2022-08-03T05:47:40;4.15;;;3.10;;
34072;SDS011;20346;52.702;16.886;2022-08-03T05:50:09;3.33;;;2.90;;
34072;SDS011;20346;52.702;16.886;2022-08-03T05:52:38;7.15;;;3.98;;
34072;SDS011;20346;52.702;16.886;2022-08-03T05:55:05;3.35;;;3.05;;
34072;SDS011;20346;52.702;16.886;2022-08-03T05:57:33;3.65;;;2.92;;
34072;SDS011;20346;52.702;16.886;2022-08-03T06:00:04;3.30;;;3.00;;
34072;SDS011;20346;52.702;16.886;2022-08-03T06:02:35;4.62;;;3.50;;
34072;SDS011;20346;52.702;16.886;2022-08-03T06:05:02;3.50;;;3.15;;
34072;SDS011;20346;52.702;16.886;2022-08-03T06:07:29;4.12;;;3.00;;
34072;SDS011;20346;52.702;16.886;2022-08-03T06:09:55;6.75;;;3.33;;
34072;SDS011;20346;52.702;16.886;2022-08-03T06:12:22;3.60;;;2.70;;
34072;SDS011;20346;52.702;16.886;2022-08-03T06:14:48;2.95;;;2.75;;
34072;SDS011;20346;52.702;16.886;2022-08-03T06:17:15;4.62;;;2.92;;
34072;SDS011;20346;52.702;16.886;2022-08-03T06:19:42;10.30;;;3.10;;
34072;SDS011;20346;52.702;16.886;2022-08-03T06:22:08;4.25;;;2.98;;
34072;SDS011;20346;52.702;16.886;2022-08-03T06:24:35;6.67;;;2.60;;
34072;SDS011;20346;52.702;16.886;2022-08-03T06:27:01;6.65;;;3.50;;
34072;SDS011;20346;52.702;16.886;2022-08-03T06:29:29;10.10;;;2.85;;
34072;SDS011;20346;52.702;16.886;2022-08-03T06:31:55;10.25;;;2.83;;
34072;SDS011;20346;52.702;16.886;2022-08-03T06:34:22;3.83;;;2.90;;
34072;SDS011;20346;52.702;16.886;2022-08-03T06:36:48;10.38;;;2.87;;
34072;SDS011;20346;52.702;16.886;2022-08-03T06:39:16;2.77;;;2.58;;
34072;SDS011;20346;52.702;16.886;2022-08-03T06:41:43;6.65;;;2.47;;
34072;SDS011;20346;52.702;16.886;2022-08-03T06:44:09;10.03;;;2.30;;
34072;SDS011;20346;52.702;16.886;2022-08-03T06:49:02;3.87;;;2.37;;
34072;SDS011;20346;52.702;16.886;2022-08-03T06:51:29;4.15;;;2.77;;
34072;SDS011;20346;52.702;16.886;2022-08-03T06:53:56;3.45;;;2.58;;
34072;SDS011;20346;52.702;16.886;2022-08-03T06:56:22;2.95;;;2.25;;
34072;SDS011;20346;52.702;16.886;2022-08-03T06:58:48;4.15;;;2.62;;
34072;SDS011;20346;52.702;16.886;2022-08-03T07:01:16;3.15;;;2.35;;
34072;SDS011;20346;52.702;16.886;2022-08-03T07:03:42;4.47;;;2.22;;
34072;SDS011;20346;52.702;16.886;2022-08-03T07:06:08;5.12;;;2.33;;
34072;SDS011;20346;52.702;16.886;2022-08-03T07:08:35;7.05;;;2.75;;
34072;SDS011;20346;52.702;16.886;2022-08-03T07:11:02;3.20;;;2.33;;
34072;SDS011;20346;52.702;16.886;2022-08-03T07:13:28;8.33;;;2.60;;
34072;SDS011;20346;52.702;16.886;2022-08-03T07:15:55;2.80;;;2.22;;
34072;SDS011;20346;52.702;16.886;2022-08-03T07:18:21;2.87;;;2.35;;
34072;SDS011;20346;52.702;16.886;2022-08-03T07:23:14;6.28;;;2.50;;
34072;SDS011;20346;52.702;16.886;2022-08-03T07:25:40;4.28;;;2.17;;
34072;SDS011;20346;52.702;16.886;2022-08-03T07:28:06;9.63;;;2.30;;
34072;SDS011;20346;52.702;16.886;2022-08-03T07:30:33;3.17;;;2.75;;
34072;SDS011;20346;52.702;16.886;2022-08-03T07:33:00;3.92;;;2.50;;
34072;SDS011;20346;52.702;16.886;2022-08-03T07:37:52;1.98;;;1.77;;
34072;SDS011;20346;52.702;16.886;2022-08-03T07:40:19;5.40;;;2.47;;
34072;SDS011;20346;52.702;16.886;2022-08-03T07:42:46;2.75;;;1.87;;
34072;SDS011;20346;52.702;16.886;2022-08-03T07:47:38;2.58;;;1.80;;
34072;SDS011;20346;52.702;16.886;2022-08-03T07:50:06;2.87;;;2.15;;
34072;SDS011;20346;52.702;16.886;2022-08-03T07:52:33;2.10;;;1.90;;
34072;SDS011;20346;52.702;16.886;2022-08-03T07:55:22;4.30;;;2.10;;
34072;SDS011;20346;52.702;16.886;2022-08-03T07:58:04;4.62;;;2.55;;
34072;SDS011;20346;52.702;16.886;2022-08-03T08:00:37;3.20;;;1.90;;
34072;SDS011;20346;52.702;16.886;2022-08-03T08:03:04;2.55;;;1.92;;
34072;SDS011;20346;52.702;16.886;2022-08-03T08:05:30;3.67;;;1.90;;
34072;SDS011;20346;52.702;16.886;2022-08-03T08:07:58;2.00;;;1.72;;
34072;SDS011;20346;52.702;16.886;2022-08-03T08:10:26;2.30;;;2.10;;
34072;SDS011;20346;52.702;16.886;2022-08-03T08:12:53;5.25;;;1.87;;
34072;SDS011;20346;52.702;16.886;2022-08-03T08:15:20;5.75;;;2.00;;
34072;SDS011;20346;52.702;16.886;2022-08-03T08:17:48;5.45;;;2.05;;
34072;SDS011;20346;52.702;16.886;2022-08-03T08:20:19;3.37;;;2.20;;
34072;SDS011;20346;52.702;16.886;2022-08-03T08:22:48;3.05;;;2.65;;
34072;SDS011;20346;52.702;16.886;2022-08-03T08:27:44;5.62;;;1.90;;
34072;SDS011;20346;52.702;16.886;2022-08-03T08:30:13;2.87;;;2.00;;
34072;SDS011;20346;52.702;16.886;2022-08-03T08:32:46;5.50;;;2.20;;
34072;SDS011;20346;52.702;16.886;2022-08-03T08:35:14;4.17;;;2.10;;
34072;SDS011;20346;52.702;16.886;2022-08-03T08:37:41;2.12;;;1.92;;
34072;SDS011;20346;52.702;16.886;2022-08-03T08:40:08;3.12;;;2.30;;
34072;SDS011;20346;52.702;16.886;2022-08-03T08:42:37;3.35;;;2.40;;
34072;SDS011;20346;52.702;16.886;2022-08-03T08:45:07;4.00;;;2.00;;
34072;SDS011;20346;52.702;16.886;2022-08-03T08:47:37;2.87;;;2.55;;
34072;SDS011;20346;52.702;16.886;2022-08-03T08:50:06;7.00;;;2.12;;
34072;SDS011;20346;52.702;16.886;2022-08-03T08:52:34;4.03;;;2.50;;
34072;SDS011;20346;52.702;16.886;2022-08-03T08:55:07;8.35;;;2.27;;
34072;SDS011;20346;52.702;16.886;2022-08-03T08:57:36;5.00;;;2.10;;
34072;SDS011;20346;52.702;16.886;2022-08-03T09:00:07;3.80;;;2.10;;
34072;SDS011;20346;52.702;16.886;2022-08-03T09:02:38;1.98;;;1.82;;
34072;SDS011;20346;52.702;16.886;2022-08-03T09:05:10;2.70;;;1.60;;
34072;SDS011;20346;52.702;16.886;2022-08-03T09:07:44;2.30;;;1.90;;
34072;SDS011;20346;52.702;16.886;2022-08-03T09:10:09;5.10;;;1.80;;
34072;SDS011;20346;52.702;16.886;2022-08-03T09:12:42;1.80;;;1.70;;
34072;SDS011;20346;52.702;16.886;2022-08-03T09:15:20;2.55;;;2.15;;
34072;SDS011;20346;52.702;16.886;2022-08-03T09:17:51;2.27;;;2.08;;
34072;SDS011;20346;52.702;16.886;2022-08-03T09:20:21;6.70;;;1.90;;
34072;SDS011;20346;52.702;16.886;2022-08-03T09:22:50;2.55;;;1.70;;
34072;SDS011;20346;52.702;16.886;2022-08-03T09:25:33;3.15;;;2.20;;
34072;SDS011;20346;52.702;16.886;2022-08-03T09:28:12;3.10;;;1.60;;
34072;SDS011;20346;52.702;16.886;2022-08-03T09:30:42;2.08;;;1.80;;
34072;SDS011;20346;52.702;16.886;2022-08-03T09:33:12;2.33;;;1.57;;
34072;SDS011;20346;52.702;16.886;2022-08-03T09:35:42;5.95;;;1.70;;
34072;SDS011;20346;52.702;16.886;2022-08-03T09:38:17;1.77;;;1.62;;
34072;SDS011;20346;52.702;16.886;2022-08-03T09:40:53;3.17;;;1.87;;
34072;SDS011;20346;52.702;16.886;2022-08-03T09:43:20;3.87;;;1.98;;
34072;SDS011;20346;52.702;16.886;2022-08-03T09:45:49;5.42;;;2.17;;
34072;SDS011;20346;52.702;16.886;2022-08-03T09:48:26;4.37;;;1.72;;
34072;SDS011;20346;52.702;16.886;2022-08-03T09:51:02;5.42;;;1.80;;
34072;SDS011;20346;52.702;16.886;2022-08-03T09:53:41;3.10;;;2.55;;
34072;SDS011;20346;52.702;16.886;2022-08-03T09:56:11;5.67;;;1.90;;
34072;SDS011;20346;52.702;16.886;2022-08-03T09:58:45;1.82;;;1.60;;
34072;SDS011;20346;52.702;16.886;2022-08-03T10:01:12;3.42;;;1.72;;
34072;SDS011;20346;52.702;16.886;2022-08-03T10:03:39;5.00;;;2.02;;
34072;SDS011;20346;52.702;16.886;2022-08-03T10:06:15;2.72;;;1.67;;
34072;SDS011;20346;52.702;16.886;2022-08-03T10:09:03;2.02;;;1.55;;
34072;SDS011;20346;52.702;16.886;2022-08-03T10:11:36;2.15;;;1.65;;
34072;SDS011;20346;52.702;16.886;2022-08-03T10:14:05;2.65;;;1.80;;
34072;SDS011;20346;52.702;16.886;2022-08-03T10:16:38;2.50;;;1.60;;
34072;SDS011;20346;52.702;16.886;2022-08-03T10:19:06;4.95;;;1.77;;
34072;SDS011;20346;52.702;16.886;2022-08-03T10:21:35;2.05;;;1.72;;
34072;SDS011;20346;52.702;16.886;2022-08-03T10:24:07;2.45;;;1.65;;
34072;SDS011;20346;52.702;16.886;2022-08-03T10:26:38;2.60;;;1.70;;
34072;SDS011;20346;52.702;16.886;2022-08-03T10:29:11;3.08;;;1.82;;
34072;SDS011;20346;52.702;16.886;2022-08-03T10:31:43;1.70;;;1.60;;
34072;SDS011;20346;52.702;16.886;2022-08-03T10:34:21;3.58;;;1.77;;
34072;SDS011;20346;52.702;16.886;2022-08-03T10:36:46;1.98;;;1.87;;
34072;SDS011;20346;52.702;16.886;2022-08-03T10:39:14;3.45;;;1.75;;
34072;SDS011;20346;52.702;16.886;2022-08-03T10:41:44;2.00;;;1.90;;
34072;SDS011;20346;52.702;16.886;2022-08-03T10:44:19;2.33;;;1.87;;
34072;SDS011;20346;52.702;16.886;2022-08-03T10:46:48;8.75;;;2.22;;
34072;SDS011;20346;52.702;16.886;2022-08-03T10:49:20;3.15;;;2.75;;
34072;SDS011;20346;52.702;16.886;2022-08-03T10:51:45;4.53;;;1.60;;
34072;SDS011;20346;52.702;16.886;2022-08-03T10:54:46;8.93;;;2.10;;
34072;SDS011;20346;52.702;16.886;2022-08-03T10:57:07;9.28;;;1.77;;
34072;SDS011;20346;52.702;16.886;2022-08-03T10:59:58;2.27;;;1.80;;
34072;SDS011;20346;52.702;16.886;2022-08-03T11:03:00;1.82;;;1.72;;
34072;SDS011;20346;52.702;16.886;2022-08-03T11:05:27;2.62;;;2.05;;
34072;SDS011;20346;52.702;16.886;2022-08-03T11:10:49;2.67;;;1.95;;
34072;SDS011;20346;52.702;16.886;2022-08-03T11:13:19;5.85;;;2.10;;
34072;SDS011;20346;52.702;16.886;2022-08-03T11:15:49;5.08;;;1.87;;
34072;SDS011;20346;52.702;16.886;2022-08-03T11:18:18;1.77;;;1.55;;
34072;SDS011;20346;52.702;16.886;2022-08-03T11:20:51;6.65;;;2.02;;
34072;SDS011;20346;52.702;16.886;2022-08-03T11:23:43;5.17;;;2.00;;
34072;SDS011;20346;52.702;16.886;2022-08-03T11:26:15;4.78;;;1.92;;
34072;SDS011;20346;52.702;16.886;2022-08-03T11:28:44;2.35;;;2.10;;
34072;SDS011;20346;52.702;16.886;2022-08-03T11:34:03;3.67;;;2.12;;
34072;SDS011;20346;52.702;16.886;2022-08-03T11:39:44;1.95;;;1.85;;
34072;SDS011;20346;52.702;16.886;2022-08-03T11:44:55;2.00;;;1.80;;
34072;SDS011;20346;52.702;16.886;2022-08-03T11:47:27;4.42;;;1.80;;
34072;SDS011;20346;52.702;16.886;2022-08-03T11:49:55;2.58;;;1.75;;
34072;SDS011;20346;52.702;16.886;2022-08-03T11:52:24;2.35;;;1.60;;
34072;SDS011;20346;52.702;16.886;2022-08-03T11:54:52;2.22;;;1.30;;
34072;SDS011;20346;52.702;16.886;2022-08-03T11:57:29;2.80;;;1.50;;
34072;SDS011;20346;52.702;16.886;2022-08-03T11:59:58;1.65;;;1.55;;
34072;SDS011;20346;52.702;16.886;2022-08-03T12:02:25;1.60;;;1.50;;
34072;SDS011;20346;52.702;16.886;2022-08-03T12:04:56;3.85;;;1.80;;
34072;SDS011;20346;52.702;16.886;2022-08-03T12:07:27;5.35;;;2.00;;
34072;SDS011;20346;52.702;16.886;2022-08-03T12:12:38;1.22;;;1.12;;
34072;SDS011;20346;52.702;16.886;2022-08-03T12:15:07;3.60;;;1.47;;
34072;SDS011;20346;52.702;16.886;2022-08-03T12:17:35;2.37;;;1.40;;
34072;SDS011;20346;52.702;16.886;2022-08-03T12:20:04;1.60;;;1.50;;
34072;SDS011;20346;52.702;16.886;2022-08-03T12:22:38;2.27;;;1.55;;
34072;SDS011;20346;52.702;16.886;2022-08-03T12:25:19;1.54;;;1.36;;
34072;SDS011;20346;52.702;16.886;2022-08-03T12:27:49;1.50;;;1.30;;
34072;SDS011;20346;52.702;16.886;2022-08-03T12:30:18;2.85;;;1.20;;
34072;SDS011;20346;52.702;16.886;2022-08-03T12:32:45;1.45;;;1.35;;
34072;SDS011;20346;52.702;16.886;2022-08-03T12:35:22;3.37;;;1.40;;
34072;SDS011;20346;52.702;16.886;2022-08-03T12:37:50;1.20;;;1.20;;
34072;SDS011;20346;52.702;16.886;2022-08-03T12:40:24;7.08;;;1.30;;
34072;SDS011;20346;52.702;16.886;2022-08-03T12:42:52;2.15;;;1.60;;
34072;SDS011;20346;52.702;16.886;2022-08-03T12:45:19;2.60;;;1.50;;
34072;SDS011;20346;52.702;16.886;2022-08-03T12:47:54;2.58;;;1.40;;
34072;SDS011;20346;52.702;16.886;2022-08-03T12:50:30;3.55;;;1.37;;
34072;SDS011;20346;52.702;16.886;2022-08-03T12:53:00;4.12;;;1.72;;
34072;SDS011;20346;52.702;16.886;2022-08-03T12:55:29;4.05;;;1.50;;
34072;SDS011;20346;52.702;16.886;2022-08-03T12:57:59;1.70;;;1.60;;
34072;SDS011;20346;52.702;16.886;2022-08-03T13:00:31;3.27;;;1.90;;
34072;SDS011;20346;52.702;16.886;2022-08-03T13:03:02;3.83;;;1.57;;
34072;SDS011;20346;52.702;16.886;2022-08-03T13:05:31;2.80;;;1.50;;
34072;SDS011;20346;52.702;16.886;2022-08-03T13:08:18;1.85;;;1.50;;
34072;SDS011;20346;52.702;16.886;2022-08-03T13:10:47;1.80;;;1.40;;
34072;SDS011;20346;52.702;16.886;2022-08-03T13:13:14;2.02;;;1.47;;
34072;SDS011;20346;52.702;16.886;2022-08-03T13:15:41;1.37;;;1.27;;
34072;SDS011;20346;52.702;16.886;2022-08-03T13:20:34;4.08;;;1.55;;
34072;SDS011;20346;52.702;16.886;2022-08-03T13:25:27;4.87;;;1.60;;
34072;SDS011;20346;52.702;16.886;2022-08-03T13:27:53;2.33;;;1.22;;
34072;SDS011;20346;52.702;16.886;2022-08-03T13:30:20;2.30;;;1.20;;
34072;SDS011;20346;52.702;16.886;2022-08-03T13:32:46;2.45;;;1.87;;
34072;SDS011;20346;52.702;16.886;2022-08-03T13:35:13;1.45;;;1.25;;
34072;SDS011;20346;52.702;16.886;2022-08-03T13:37:39;1.40;;;1.30;;
34072;SDS011;20346;52.702;16.886;2022-08-03T13:42:34;3.37;;;1.50;;
34072;SDS011;20346;52.702;16.886;2022-08-03T13:45:01;1.62;;;1.52;;
34072;SDS011;20346;52.702;16.886;2022-08-03T13:47:30;6.47;;;1.30;;
34072;SDS011;20346;52.702;16.886;2022-08-03T13:49:56;1.70;;;1.20;;
34072;SDS011;20346;52.702;16.886;2022-08-03T13:52:23;1.62;;;1.30;;
34072;SDS011;20346;52.702;16.886;2022-08-03T13:54:49;7.67;;;1.32;;
34072;SDS011;20346;52.702;16.886;2022-08-03T13:57:15;3.62;;;1.30;;
34072;SDS011;20346;52.702;16.886;2022-08-03T13:59:42;3.22;;;1.30;;
34072;SDS011;20346;52.702;16.886;2022-08-03T14:02:09;4.30;;;1.47;;
34072;SDS011;20346;52.702;16.886;2022-08-03T14:04:35;4.33;;;1.42;;
34072;SDS011;20346;52.702;16.886;2022-08-03T14:07:01;1.20;;;1.10;;
34072;SDS011;20346;52.702;16.886;2022-08-03T14:09:28;2.55;;;1.35;;
34072;SDS011;20346;52.702;16.886;2022-08-03T14:11:55;2.42;;;1.52;;
34072;SDS011;20346;52.702;16.886;2022-08-03T14:14:22;1.50;;;1.37;;
34072;SDS011;20346;52.702;16.886;2022-08-03T14:16:50;1.95;;;1.55;;
34072;SDS011;20346;52.702;16.886;2022-08-03T14:21:43;1.50;;;1.40;;
34072;SDS011;20346;52.702;16.886;2022-08-03T14:26:36;9.23;;;1.60;;
34072;SDS011;20346;52.702;16.886;2022-08-03T14:31:30;1.50;;;1.30;;
34072;SDS011;20346;52.702;16.886;2022-08-03T14:36:23;4.55;;;1.67;;
34072;SDS011;20346;52.702;16.886;2022-08-03T14:41:15;5.53;;;1.70;;
34072;SDS011;20346;52.702;16.886;2022-08-03T14:43:42;3.98;;;1.50;;
34072;SDS011;20346;52.702;16.886;2022-08-03T14:46:08;2.30;;;1.40;;
34072;SDS011;20346;52.702;16.886;2022-08-03T14:48:35;3.62;;;1.70;;
34072;SDS011;20346;52.702;16.886;2022-08-03T14:51:01;1.70;;;1.60;;
34072;SDS011;20346;52.702;16.886;2022-08-03T14:53:29;3.90;;;1.40;;
34072;SDS011;20346;52.702;16.886;2022-08-03T14:55:55;4.30;;;1.42;;
34072;SDS011;20346;52.702;16.886;2022-08-03T14:58:23;6.78;;;1.60;;
34072;SDS011;20346;52.702;16.886;2022-08-03T15:00:51;7.22;;;2.15;;
34072;SDS011;20346;52.702;16.886;2022-08-03T15:03:20;7.40;;;2.05;;
34072;SDS011;20346;52.702;16.886;2022-08-03T15:05:49;4.40;;;1.55;;
34072;SDS011;20346;52.702;16.886;2022-08-03T15:08:19;2.15;;;1.50;;
34072;SDS011;20346;52.702;16.886;2022-08-03T15:10:47;5.53;;;1.77;;
34072;SDS011;20346;52.702;16.886;2022-08-03T15:13:15;5.03;;;1.80;;
34072;SDS011;20346;52.702;16.886;2022-08-03T15:15:43;5.75;;;1.60;;
34072;SDS011;20346;52.702;16.886;2022-08-03T15:18:09;5.25;;;1.35;;
34072;SDS011;20346;52.702;16.886;2022-08-03T15:20:36;2.40;;;1.62;;
34072;SDS011;20346;52.702;16.886;2022-08-03T15:23:02;3.25;;;1.80;;
34072;SDS011;20346;52.702;16.886;2022-08-03T15:25:28;3.65;;;1.77;;
34072;SDS011;20346;52.702;16.886;2022-08-03T15:27:55;2.37;;;1.80;;
34072;SDS011;20346;52.702;16.886;2022-08-03T15:30:22;5.28;;;1.55;;
34072;SDS011;20346;52.702;16.886;2022-08-03T15:32:48;2.00;;;1.62;;
34072;SDS011;20346;52.702;16.886;2022-08-03T15:35:15;4.90;;;1.70;;
34072;SDS011;20346;52.702;16.886;2022-08-03T15:37:41;3.50;;;1.90;;
34072;SDS011;20346;52.702;16.886;2022-08-03T15:40:08;1.90;;;1.40;;
34072;SDS011;20346;52.702;16.886;2022-08-03T15:42:36;8.93;;;1.80;;
34072;SDS011;20346;52.702;16.886;2022-08-03T15:45:02;10.95;;;1.92;;
34072;SDS011;20346;52.702;16.886;2022-08-03T15:47:30;5.50;;;1.50;;
34072;SDS011;20346;52.702;16.886;2022-08-03T15:49:56;4.72;;;1.90;;
34072;SDS011;20346;52.702;16.886;2022-08-03T15:52:23;7.45;;;2.00;;
34072;SDS011;20346;52.702;16.886;2022-08-03T15:54:49;1.80;;;1.70;;
34072;SDS011;20346;52.702;16.886;2022-08-03T15:57:16;3.33;;;1.70;;
34072;SDS011;20346;52.702;16.886;2022-08-03T15:59:43;2.27;;;1.30;;
34072;SDS011;20346;52.702;16.886;2022-08-03T16:02:09;4.58;;;1.77;;
34072;SDS011;20346;52.702;16.886;2022-08-03T16:04:35;7.47;;;1.72;;
34072;SDS011;20346;52.702;16.886;2022-08-03T16:07:02;7.03;;;1.70;;
34072;SDS011;20346;52.702;16.886;2022-08-03T16:09:29;4.92;;;1.60;;